createdAt,value
2018-03-04T00:00:51.527Z,-5.80
2018-03-04T00:01:51.477Z,-5.88
2018-03-04T00:02:51.467Z,-5.88
2018-03-04T00:03:51.457Z,-5.92
2018-03-04T00:04:51.448Z,-6.02
2018-03-04T00:05:51.475Z,-6.11
2018-03-04T00:06:51.427Z,-6.08
2018-03-04T00:07:51.417Z,-6.09
2018-03-04T00:08:51.408Z,-6.09
2018-03-04T00:09:51.397Z,-6.09
2018-03-04T00:10:51.426Z,-6.09
2018-03-04T00:11:51.376Z,-6.15
2018-03-04T00:12:51.365Z,-6.27
2018-03-04T00:13:51.355Z,-6.11
2018-03-04T00:14:51.346Z,-6.00
2018-03-04T00:15:51.380Z,-5.92
2018-03-04T00:16:51.325Z,-6.06
2018-03-04T00:17:51.315Z,-6.11
2018-03-04T00:18:51.306Z,-6.08
2018-03-04T00:19:51.332Z,-6.11
2018-03-04T00:20:51.285Z,-6.24
2018-03-04T00:21:51.317Z,-6.27
2018-03-04T00:22:51.262Z,-6.34
2018-03-04T00:23:51.251Z,-6.36
2018-03-04T00:24:51.242Z,-6.42
2018-03-04T00:25:51.234Z,-6.29
2018-03-04T00:26:51.266Z,-6.23
2018-03-04T00:27:51.213Z,-6.29
2018-03-04T00:28:51.203Z,-6.36
2018-03-04T00:29:51.230Z,-6.24
2018-03-04T00:30:51.183Z,-6.44
2018-03-04T00:31:51.176Z,-6.42
2018-03-04T00:32:51.209Z,-6.47
2018-03-04T00:33:51.150Z,-6.47
2018-03-04T00:34:51.138Z,-6.47
2018-03-04T00:35:51.128Z,-6.39
2018-03-04T00:36:51.118Z,-6.24
2018-03-04T00:37:51.146Z,-6.23
2018-03-04T00:38:51.096Z,-6.16
2018-03-04T00:39:51.087Z,-6.21
2018-03-04T00:40:51.075Z,-6.19
2018-03-04T00:41:51.068Z,-6.18
2018-03-04T00:42:51.100Z,-6.26
2018-03-04T00:43:51.047Z,-6.39
2018-03-04T00:44:51.079Z,-6.40
2018-03-04T00:45:51.022Z,-6.26
2018-03-04T00:46:51.014Z,-6.26
2018-03-04T00:47:51.001Z,-6.24
2018-03-04T00:48:51.035Z,-6.12
2018-03-04T00:49:51.017Z,-6.16
2018-03-04T00:50:50.971Z,-5.97
2018-03-04T00:51:50.960Z,-5.95
2018-03-04T00:52:50.948Z,-5.91
2018-03-04T00:53:50.939Z,-5.87
2018-03-04T00:54:50.969Z,-5.92
2018-03-04T00:55:50.920Z,-5.76
2018-03-04T00:56:50.909Z,-5.87
2018-03-04T00:57:50.895Z,-5.91
2018-03-04T00:58:50.886Z,-5.82
2018-03-04T00:59:50.913Z,-5.92
2018-03-04T01:00:50.863Z,-5.90
2018-03-04T01:01:50.854Z,-5.88
2018-03-04T01:02:50.846Z,-5.92
2018-03-04T01:03:50.831Z,-6.11
2018-03-04T01:04:50.861Z,-6.09
2018-03-04T01:05:50.810Z,-6.19
2018-03-04T01:06:50.799Z,-6.06
2018-03-04T01:07:50.790Z,-6.00
2018-03-04T01:08:50.778Z,-5.83
2018-03-04T01:09:50.817Z,-5.98
2018-03-04T01:10:50.761Z,-6.15
2018-03-04T01:11:50.749Z,-6.21
2018-03-04T01:12:50.739Z,-6.24
2018-03-04T01:13:50.728Z,-6.36
2018-03-04T01:14:50.755Z,-6.34
2018-03-04T01:15:50.703Z,-6.26
2018-03-04T01:16:50.701Z,-6.30
2018-03-04T01:17:50.684Z,-6.18
2018-03-04T01:18:50.674Z,-6.37
2018-03-04T01:19:50.706Z,-6.31
2018-03-04T01:20:50.657Z,-6.42
2018-03-04T01:21:50.641Z,-6.47
2018-03-04T01:22:50.634Z,-6.59
2018-03-04T01:23:50.690Z,-6.64
2018-03-04T01:24:50.612Z,-6.82
2018-03-04T01:25:50.602Z,-6.85
2018-03-04T01:26:50.593Z,-6.88
2018-03-04T01:27:50.578Z,-6.76
2018-03-04T01:28:50.571Z,-6.69
2018-03-04T01:29:50.599Z,-6.64
2018-03-04T01:30:50.548Z,-6.45
2018-03-04T01:31:50.540Z,-6.42
2018-03-04T01:32:50.528Z,-6.24
2018-03-04T01:33:50.518Z,-6.13
2018-03-04T01:34:50.571Z,-5.90
2018-03-04T01:35:50.516Z,-5.62
2018-03-04T01:36:50.494Z,-5.62
2018-03-04T01:37:50.474Z,-5.63
2018-03-04T01:38:50.463Z,-5.61
2018-03-04T01:39:50.496Z,-5.62
2018-03-04T01:40:50.442Z,-5.47
2018-03-04T01:41:50.433Z,-5.56
2018-03-04T01:42:50.423Z,-5.74
2018-03-04T01:43:50.411Z,-5.83
2018-03-04T01:44:50.438Z,-5.90
2018-03-04T01:45:50.430Z,-5.92
2018-03-04T01:46:50.376Z,-6.09
2018-03-04T01:47:50.366Z,-6.08
2018-03-04T01:48:50.359Z,-6.23
2018-03-04T01:49:50.348Z,-6.27
2018-03-04T01:50:50.380Z,-6.24
2018-03-04T01:51:50.326Z,-6.24
2018-03-04T01:52:50.315Z,-6.27
2018-03-04T01:53:50.308Z,-6.24
2018-03-04T01:54:50.340Z,-6.29
2018-03-04T01:55:50.287Z,-6.26
2018-03-04T01:56:50.272Z,-6.30
2018-03-04T01:57:50.262Z,-6.23
2018-03-04T01:58:50.254Z,-6.19
2018-03-04T01:59:50.284Z,-6.26
2018-03-04T02:00:50.230Z,-6.18
2018-03-04T02:01:50.221Z,-6.12
2018-03-04T02:02:50.214Z,-6.01
2018-03-04T02:03:50.200Z,-5.88
2018-03-04T02:04:50.234Z,-5.83
2018-03-04T02:05:50.179Z,-5.92
2018-03-04T02:06:50.166Z,-5.87
2018-03-04T02:07:50.159Z,-5.87
2018-03-04T02:08:50.173Z,-5.74
2018-03-04T02:09:50.176Z,-5.67
2018-03-04T02:10:50.171Z,-5.49
2018-03-04T02:11:50.127Z,-5.37
2018-03-04T02:12:50.107Z,-5.49
2018-03-04T02:13:50.095Z,-5.43
2018-03-04T02:14:50.090Z,-5.27
2018-03-04T02:15:50.120Z,-5.23
2018-03-04T02:16:50.066Z,-5.11
2018-03-04T02:17:50.056Z,-5.07
2018-03-04T02:18:50.044Z,-4.87
2018-03-04T02:19:50.034Z,-4.73
2018-03-04T02:20:50.069Z,-4.77
2018-03-04T02:21:50.016Z,-4.75
2018-03-04T02:22:50.004Z,-4.69
2018-03-04T02:23:49.995Z,-4.66
2018-03-04T02:24:49.982Z,-4.54
2018-03-04T02:25:50.015Z,-4.51
2018-03-04T02:26:49.964Z,-4.50
2018-03-04T02:27:49.953Z,-4.58
2018-03-04T02:28:49.947Z,-4.82
2018-03-04T02:29:49.978Z,-4.97
2018-03-04T02:30:49.968Z,-5.03
2018-03-04T02:31:49.914Z,-4.89
2018-03-04T02:32:49.911Z,-4.94
2018-03-04T02:33:49.894Z,-4.82
2018-03-04T02:34:49.885Z,-4.86
2018-03-04T02:35:49.914Z,-4.76
2018-03-04T02:36:49.866Z,-4.86
2018-03-04T02:37:49.863Z,-4.89
2018-03-04T02:38:49.856Z,-4.93
2018-03-04T02:39:49.835Z,-5.03
2018-03-04T02:40:49.869Z,-5.05
2018-03-04T02:41:49.816Z,-5.14
2018-03-04T02:42:49.806Z,-5.11
2018-03-04T02:43:49.800Z,-5.01
2018-03-04T02:44:49.789Z,-4.93
2018-03-04T02:45:49.816Z,-4.51
2018-03-04T02:46:49.770Z,-4.18
2018-03-04T02:47:49.766Z,-4.18
2018-03-04T02:48:49.750Z,-4.26
2018-03-04T02:49:49.741Z,-4.23
2018-03-04T02:50:49.775Z,-4.14
2018-03-04T02:51:49.721Z,-4.25
2018-03-04T02:52:49.713Z,-4.32
2018-03-04T02:53:49.716Z,-4.30
2018-03-04T02:54:49.703Z,-4.37
2018-03-04T02:55:49.723Z,-4.33
2018-03-04T02:56:49.713Z,-4.40
2018-03-04T02:57:49.667Z,-4.40
2018-03-04T02:58:49.654Z,-4.51
2018-03-04T02:59:49.650Z,-4.48
2018-03-04T03:00:49.641Z,-4.62
2018-03-04T03:01:49.671Z,-4.59
2018-03-04T03:02:49.617Z,-4.41
2018-03-04T03:03:49.609Z,-4.37
2018-03-04T03:04:49.604Z,-4.23
2018-03-04T03:05:49.592Z,-4.25
2018-03-04T03:06:49.622Z,-4.11
2018-03-04T03:07:50.120Z,-4.12
2018-03-04T03:08:50.301Z,-4.12
2018-03-04T03:09:49.555Z,-4.19
2018-03-04T03:10:49.544Z,-4.33
2018-03-04T03:11:49.573Z,-4.33
2018-03-04T03:12:49.526Z,-4.32
2018-03-04T03:13:49.520Z,-4.20
2018-03-04T03:14:49.510Z,-4.18
2018-03-04T03:15:49.501Z,-4.23
2018-03-04T03:16:49.535Z,-4.18
2018-03-04T03:17:49.522Z,-4.02
2018-03-04T03:18:49.472Z,-3.96
2018-03-04T03:19:49.464Z,-3.93
2018-03-04T03:20:49.493Z,-4.02
2018-03-04T03:21:49.445Z,-3.93
2018-03-04T03:22:49.473Z,-3.94
2018-03-04T03:23:49.426Z,-3.96
2018-03-04T03:24:49.421Z,-3.94
2018-03-04T03:25:49.435Z,-3.84
2018-03-04T03:26:49.468Z,-3.84
2018-03-04T03:27:49.418Z,-3.87
2018-03-04T03:28:49.409Z,-3.83
2018-03-04T03:29:49.399Z,-3.99
2018-03-04T03:30:49.396Z,-3.96
2018-03-04T03:31:49.441Z,-4.07
2018-03-04T03:32:49.372Z,-4.08
2018-03-04T03:33:49.365Z,-4.07
2018-03-04T03:34:49.358Z,-4.04
2018-03-04T03:35:49.387Z,-3.96
2018-03-04T03:36:49.341Z,-3.98
2018-03-04T03:37:49.368Z,-3.87
2018-03-04T03:38:49.321Z,-3.91
2018-03-04T03:39:49.314Z,-3.91
2018-03-04T03:40:49.304Z,-3.81
2018-03-04T03:41:49.296Z,-3.62
2018-03-04T03:42:49.346Z,-3.57
2018-03-04T03:43:49.276Z,-3.61
2018-03-04T03:44:49.270Z,-3.54
2018-03-04T03:45:49.297Z,-3.57
2018-03-04T03:46:49.249Z,-3.35
2018-03-04T03:47:49.245Z,-3.41
2018-03-04T03:48:49.273Z,-3.20
2018-03-04T03:49:49.226Z,-3.18
2018-03-04T03:50:49.217Z,-3.02
2018-03-04T03:51:49.207Z,-2.97
2018-03-04T03:52:49.204Z,-3.07
2018-03-04T03:53:49.250Z,-3.07
2018-03-04T03:54:49.181Z,-3.05
2018-03-04T03:55:49.215Z,-3.00
2018-03-04T03:56:49.167Z,-2.85
2018-03-04T03:57:49.157Z,-2.82
2018-03-04T03:58:49.152Z,-2.92
2018-03-04T03:59:49.179Z,-3.10
2018-03-04T04:00:49.130Z,-3.11
2018-03-04T04:01:49.122Z,-3.02
2018-03-04T04:02:49.113Z,-2.86
2018-03-04T04:03:49.105Z,-2.74
2018-03-04T04:04:49.140Z,-2.50
2018-03-04T04:05:49.090Z,-2.29
2018-03-04T04:06:49.081Z,-2.13
2018-03-04T04:07:49.076Z,-2.24
2018-03-04T04:08:49.066Z,-2.20
2018-03-04T04:09:49.099Z,-2.03
2018-03-04T04:10:49.049Z,-2.02
2018-03-04T04:11:49.039Z,-2.02
2018-03-04T04:12:49.034Z,-2.05
2018-03-04T04:13:49.026Z,-1.95
2018-03-04T04:14:49.055Z,-1.87
2018-03-04T04:15:49.008Z,-1.78
2018-03-04T04:16:49.004Z,-1.80
2018-03-04T04:17:48.997Z,-1.67
2018-03-04T04:18:48.984Z,-1.84
2018-03-04T04:19:49.034Z,-1.81
2018-03-04T04:20:48.969Z,-1.84
2018-03-04T04:21:48.959Z,-1.95
2018-03-04T04:22:48.950Z,-1.75
2018-03-04T04:23:49.926Z,-1.70
2018-03-04T04:24:48.975Z,-1.77
2018-03-04T04:25:48.968Z,-1.72
2018-03-04T04:26:48.919Z,-1.54
2018-03-04T04:27:48.916Z,-1.64
2018-03-04T04:28:48.902Z,-1.59
2018-03-04T04:29:48.904Z,-1.51
2018-03-04T04:30:48.927Z,-1.63
2018-03-04T04:31:48.891Z,-1.54
2018-03-04T04:32:48.874Z,-1.66
2018-03-04T04:33:48.868Z,-1.57
2018-03-04T04:34:48.862Z,-1.54
2018-03-04T04:35:48.912Z,-1.59
2018-03-04T04:36:48.843Z,-1.51
2018-03-04T04:37:48.837Z,-1.59
2018-03-04T04:38:48.827Z,-1.54
2018-03-04T04:39:48.858Z,-1.62
2018-03-04T04:40:48.852Z,-1.70
2018-03-04T04:41:48.807Z,-1.77
2018-03-04T04:42:49.646Z,-1.54
2018-03-04T04:43:48.792Z,-1.53
2018-03-04T04:44:48.786Z,-1.38
2018-03-04T04:45:48.813Z,-1.42
2018-03-04T04:46:48.770Z,-1.45
2018-03-04T04:47:48.761Z,-1.53
2018-03-04T04:48:48.756Z,-1.51
2018-03-04T04:49:48.747Z,-1.56
2018-03-04T04:50:48.778Z,-1.56
2018-03-04T04:51:48.737Z,-1.51
2018-03-04T04:52:48.724Z,-1.48
2018-03-04T04:53:48.720Z,-1.48
2018-03-04T04:54:48.710Z,-1.46
2018-03-04T04:55:48.760Z,-1.38
2018-03-04T04:56:48.697Z,-1.38
2018-03-04T04:57:48.690Z,-1.46
2018-03-04T04:58:48.679Z,-1.54
2018-03-04T04:59:48.674Z,-1.46
2018-03-04T05:00:48.704Z,-1.51
2018-03-04T05:01:48.697Z,-1.56
2018-03-04T05:02:49.416Z,-1.59
2018-03-04T05:03:48.645Z,-1.62
2018-03-04T05:04:48.635Z,-1.60
2018-03-04T05:05:48.630Z,-1.57
2018-03-04T05:06:48.661Z,-1.54
2018-03-04T05:07:49.210Z,-1.54
2018-03-04T05:08:48.609Z,-1.63
2018-03-04T05:09:48.601Z,-1.56
2018-03-04T05:10:48.593Z,-1.62
2018-03-04T05:11:48.626Z,-1.54
2018-03-04T05:12:48.583Z,-1.62
2018-03-04T05:13:48.569Z,-1.56
2018-03-04T05:14:48.562Z,-1.66
2018-03-04T05:15:48.600Z,-1.66
2018-03-04T05:16:48.550Z,-1.49
2018-03-04T05:17:48.544Z,-1.69
2018-03-04T05:18:48.954Z,-1.66
2018-03-04T05:19:48.526Z,-1.64
2018-03-04T05:20:48.558Z,-1.72
2018-03-04T05:21:48.510Z,-1.72
2018-03-04T05:22:48.507Z,-1.77
2018-03-04T05:23:48.503Z,-1.69
2018-03-04T05:24:48.502Z,-1.80
2018-03-04T05:25:48.552Z,-1.69
2018-03-04T05:26:48.478Z,-1.78
2018-03-04T05:27:48.473Z,-1.80
2018-03-04T05:28:48.462Z,-1.82
2018-03-04T05:29:48.468Z,-1.84
2018-03-04T05:30:48.486Z,-1.85
2018-03-04T05:31:48.437Z,-1.85
2018-03-04T05:32:48.431Z,-1.93
2018-03-04T05:33:48.425Z,-1.90
2018-03-04T05:34:48.414Z,-1.84
2018-03-04T05:35:48.445Z,-1.85
2018-03-04T05:36:48.401Z,-1.99
2018-03-04T05:37:48.397Z,-1.93
2018-03-04T05:38:48.392Z,-2.00
2018-03-04T05:39:48.381Z,-2.00
2018-03-04T05:40:48.456Z,-2.05
2018-03-04T05:41:48.364Z,-1.96
2018-03-04T05:42:48.430Z,-2.02
2018-03-04T05:43:48.349Z,-2.08
2018-03-04T05:44:48.342Z,-2.02
2018-03-04T05:45:48.392Z,-1.98
2018-03-04T05:46:48.327Z,-1.99
2018-03-04T05:47:48.318Z,-1.99
2018-03-04T05:48:48.311Z,-2.03
2018-03-04T05:49:48.303Z,-1.84
2018-03-04T05:50:48.336Z,-1.92
2018-03-04T05:51:48.290Z,-1.87
2018-03-04T05:52:48.287Z,-1.82
2018-03-04T05:53:48.275Z,-1.82
2018-03-04T05:54:48.314Z,-1.84
2018-03-04T05:55:48.261Z,-1.74
2018-03-04T05:56:48.252Z,-1.67
2018-03-04T05:57:48.246Z,-1.57
2018-03-04T05:58:48.236Z,-1.63
2018-03-04T05:59:49.091Z,-1.75
2018-03-04T06:00:48.225Z,-1.67
2018-03-04T06:01:48.215Z,-1.66
2018-03-04T06:02:48.208Z,-1.63
2018-03-04T06:03:48.200Z,-1.49
2018-03-04T06:04:48.229Z,-1.56
2018-03-04T06:05:48.185Z,-1.63
2018-03-04T06:06:48.178Z,-1.59
2018-03-04T06:07:48.169Z,-1.60
2018-03-04T06:08:48.164Z,-1.64
2018-03-04T06:09:48.199Z,-1.54
2018-03-04T06:10:48.160Z,-1.60
2018-03-04T06:11:48.171Z,-1.63
2018-03-04T06:12:48.140Z,-1.60
2018-03-04T06:13:48.134Z,-1.46
2018-03-04T06:14:48.197Z,-1.48
2018-03-04T06:15:48.216Z,-1.51
2018-03-04T06:16:49.041Z,-1.35
2018-03-04T06:17:48.100Z,-1.49
2018-03-04T06:18:48.146Z,-1.46
2018-03-04T06:19:48.083Z,-1.48
2018-03-04T06:20:48.121Z,-1.43
2018-03-04T06:21:48.071Z,-1.41
2018-03-04T06:22:48.060Z,-1.56
2018-03-04T06:23:48.115Z,-1.41
2018-03-04T06:24:48.117Z,-1.25
2018-03-04T06:25:48.041Z,-1.30
2018-03-04T06:26:48.032Z,-1.25
2018-03-04T06:27:48.026Z,-1.10
2018-03-04T06:28:48.020Z,-1.21
2018-03-04T06:29:48.050Z,-1.27
2018-03-04T06:30:48.003Z,-1.18
2018-03-04T06:31:47.998Z,-1.24
2018-03-04T06:32:47.995Z,-1.30
2018-03-04T06:33:48.029Z,-1.24
2018-03-04T06:34:47.975Z,-1.12
2018-03-04T06:35:47.974Z,-1.09
2018-03-04T06:36:47.964Z,-1.27
2018-03-04T06:37:47.956Z,-1.13
2018-03-04T06:38:47.991Z,-1.24
2018-03-04T06:39:47.944Z,-1.23
2018-03-04T06:40:47.933Z,-1.23
2018-03-04T06:41:47.925Z,-1.21
2018-03-04T06:42:47.922Z,-1.24
2018-03-04T06:43:47.970Z,-1.15
2018-03-04T06:44:47.966Z,-1.17
2018-03-04T06:45:47.897Z,-1.17
2018-03-04T06:46:47.897Z,-1.10
2018-03-04T06:47:47.889Z,-1.17
2018-03-04T06:48:47.882Z,-1.15
2018-03-04T06:49:47.911Z,-1.15
2018-03-04T06:50:47.864Z,-1.15
2018-03-04T06:51:47.857Z,-1.15
2018-03-04T06:52:47.851Z,-1.18
2018-03-04T06:53:47.901Z,-1.21
2018-03-04T06:54:47.875Z,-1.13
2018-03-04T06:55:47.830Z,-1.13
2018-03-04T06:56:47.862Z,-1.13
2018-03-04T06:57:47.819Z,-1.17
2018-03-04T06:58:47.809Z,-1.07
2018-03-04T06:59:47.841Z,-1.13
2018-03-04T07:00:47.795Z,-1.10
2018-03-04T07:01:47.788Z,-1.05
2018-03-04T07:02:47.782Z,-1.09
2018-03-04T07:03:47.830Z,-1.07
2018-03-04T07:04:47.807Z,-1.05
2018-03-04T07:05:47.765Z,-0.95
2018-03-04T07:06:47.756Z,-0.89
2018-03-04T07:07:47.749Z,-0.87
2018-03-04T07:08:47.780Z,-0.81
2018-03-04T07:09:47.731Z,-0.84
2018-03-04T07:10:47.724Z,-0.87
2018-03-04T07:11:47.722Z,-0.87
2018-03-04T07:12:47.714Z,-0.86
2018-03-04T07:13:47.763Z,-0.70
2018-03-04T07:14:47.740Z,-0.73
2018-03-04T07:15:47.696Z,-0.72
2018-03-04T07:16:47.703Z,-0.65
2018-03-04T07:17:47.678Z,-0.65
2018-03-04T07:18:47.769Z,-0.70
2018-03-04T07:19:47.701Z,-0.65
2018-03-04T07:20:47.661Z,-0.50
2018-03-04T07:21:47.654Z,-0.36
2018-03-04T07:22:47.680Z,-0.33
2018-03-04T07:23:47.643Z,-0.22
2018-03-04T07:24:47.729Z,-0.27
2018-03-04T07:25:47.632Z,-0.15
2018-03-04T07:26:47.620Z,-0.08
2018-03-04T07:27:47.619Z,-0.04
2018-03-04T07:28:47.605Z,-0.08
2018-03-04T07:29:47.658Z,-0.16
2018-03-04T07:30:47.688Z,-0.05
2018-03-04T07:31:47.589Z,-0.05
2018-03-04T07:32:48.127Z,-0.18
2018-03-04T07:33:47.577Z,-0.16
2018-03-04T07:34:47.613Z,-0.18
2018-03-04T07:35:47.583Z,-0.29
2018-03-04T07:36:47.562Z,-0.19
2018-03-04T07:37:47.552Z,-0.09
2018-03-04T07:38:47.548Z,0.10
2018-03-04T07:39:47.580Z,0.31
2018-03-04T07:40:47.537Z,0.38
2018-03-04T07:41:47.531Z,0.52
2018-03-04T07:42:47.525Z,0.57
2018-03-04T07:43:47.524Z,0.51
2018-03-04T07:44:47.570Z,0.58
2018-03-04T07:45:47.508Z,0.70
2018-03-04T07:46:47.502Z,0.64
2018-03-04T07:47:47.496Z,0.65
2018-03-04T07:48:47.491Z,0.78
2018-03-04T07:49:47.488Z,0.94
2018-03-04T07:50:47.521Z,1.06
2018-03-04T07:51:47.480Z,1.07
2018-03-04T07:52:47.475Z,1.06
2018-03-04T07:53:47.467Z,1.21
2018-03-04T07:54:47.467Z,1.32
2018-03-04T07:55:47.511Z,1.40
2018-03-04T07:56:47.492Z,1.26
2018-03-04T07:57:47.445Z,1.12
2018-03-04T07:58:47.443Z,1.10
2018-03-04T07:59:47.475Z,1.22
2018-03-04T08:00:47.471Z,1.51
2018-03-04T08:01:47.469Z,1.61
2018-03-04T08:02:47.983Z,1.72
2018-03-04T08:03:47.415Z,1.99
2018-03-04T08:04:47.410Z,1.85
2018-03-04T08:05:47.406Z,1.90
2018-03-04T08:06:47.458Z,1.83
2018-03-04T08:07:47.403Z,1.57
2018-03-04T08:08:47.394Z,1.87
2018-03-04T08:09:47.391Z,1.68
2018-03-04T08:10:47.421Z,1.62
2018-03-04T08:11:47.418Z,2.12
2018-03-04T08:12:47.427Z,2.34
2018-03-04T08:13:47.379Z,2.70
2018-03-04T08:14:47.373Z,3.10
2018-03-04T08:15:48.171Z,3.15
2018-03-04T08:16:47.368Z,3.20
2018-03-04T08:17:47.409Z,3.49
2018-03-04T08:18:47.369Z,3.43
2018-03-04T08:19:47.357Z,3.18
2018-03-04T08:20:47.356Z,2.89
2018-03-04T08:21:47.357Z,2.71
2018-03-04T08:22:47.422Z,2.70
2018-03-04T08:23:47.363Z,2.59
2018-03-04T08:24:47.345Z,2.51
2018-03-04T08:25:47.401Z,1.68
2018-03-04T08:26:47.341Z,1.33
2018-03-04T08:27:47.337Z,1.14
2018-03-04T08:28:47.339Z,1.14
2018-03-04T08:29:47.336Z,1.29
2018-03-04T08:30:47.370Z,1.14
2018-03-04T08:31:47.330Z,1.16
2018-03-04T08:32:47.370Z,1.37
2018-03-04T08:33:47.323Z,1.54
2018-03-04T08:34:47.319Z,1.62
2018-03-04T08:35:47.316Z,1.36
2018-03-04T08:36:47.313Z,1.22
2018-03-04T08:37:47.371Z,1.42
2018-03-04T08:38:47.309Z,1.75
2018-03-04T08:39:47.303Z,2.06
2018-03-04T08:40:47.340Z,2.31
2018-03-04T08:41:47.300Z,2.52
2018-03-04T08:42:47.294Z,2.46
2018-03-04T08:43:47.331Z,2.67
2018-03-04T08:44:47.289Z,2.74
2018-03-04T08:45:47.292Z,3.02
2018-03-04T08:46:47.286Z,2.77
2018-03-04T08:47:47.281Z,2.79
2018-03-04T08:48:47.316Z,2.89
2018-03-04T08:49:47.274Z,2.13
2018-03-04T08:50:47.285Z,2.31
2018-03-04T08:51:47.272Z,2.63
2018-03-04T08:52:47.271Z,2.89
2018-03-04T08:53:47.305Z,3.16
2018-03-04T08:54:47.263Z,3.50
2018-03-04T08:55:47.261Z,3.89
2018-03-04T08:56:47.263Z,4.18
2018-03-04T08:57:47.266Z,4.39
2018-03-04T08:58:47.307Z,4.67
2018-03-04T08:59:47.255Z,4.96
2018-03-04T09:00:47.255Z,5.57
2018-03-04T09:01:47.254Z,5.55
2018-03-04T09:02:47.252Z,5.57
2018-03-04T09:03:47.310Z,5.66
2018-03-04T09:04:47.256Z,5.98
2018-03-04T09:05:47.253Z,6.04
2018-03-04T09:06:47.903Z,6.35
2018-03-04T09:07:47.311Z,6.35
2018-03-04T09:08:47.257Z,6.18
2018-03-04T09:09:47.257Z,6.10
2018-03-04T09:10:47.265Z,6.11
2018-03-04T09:11:47.265Z,6.98
2018-03-04T09:12:47.267Z,7.94
2018-03-04T09:13:47.309Z,6.28
2018-03-04T09:14:47.281Z,6.19
2018-03-04T09:15:47.279Z,6.97
2018-03-04T09:16:47.287Z,7.22
2018-03-04T09:17:47.289Z,7.78
2018-03-04T09:18:47.334Z,7.92
2018-03-04T09:19:47.316Z,8.08
2018-03-04T09:20:47.305Z,7.60
2018-03-04T09:21:47.309Z,6.03
2018-03-04T09:22:47.316Z,5.91
2018-03-04T09:23:47.376Z,6.65
2018-03-04T09:24:47.325Z,6.81
2018-03-04T09:25:47.328Z,6.97
2018-03-04T09:26:47.372Z,8.07
2018-03-04T09:27:47.338Z,8.90
2018-03-04T09:28:47.346Z,9.25
2018-03-04T09:29:47.402Z,9.66
2018-03-04T09:30:47.361Z,10.26
2018-03-04T09:31:47.371Z,10.26
2018-03-04T09:32:47.788Z,9.61
2018-03-04T09:33:47.377Z,9.39
2018-03-04T09:34:47.423Z,8.11
2018-03-04T09:35:47.392Z,8.15
2018-03-04T09:36:47.402Z,8.81
2018-03-04T09:37:47.419Z,7.77
2018-03-04T09:38:47.416Z,7.74
2018-03-04T09:39:47.467Z,6.73
2018-03-04T09:40:47.434Z,6.16
2018-03-04T09:41:47.442Z,7.05
2018-03-04T09:42:47.448Z,8.02
2018-03-04T09:43:47.456Z,6.69
2018-03-04T09:44:47.507Z,6.04
2018-03-04T09:45:47.506Z,5.25
2018-03-04T09:46:47.482Z,4.22
2018-03-04T09:47:47.490Z,4.61
2018-03-04T09:48:47.497Z,5.34
2018-03-04T09:49:47.544Z,6.32
2018-03-04T09:50:47.512Z,5.77
2018-03-04T09:51:47.522Z,6.33
2018-03-04T09:52:47.528Z,6.54
2018-03-04T09:53:47.539Z,6.14
2018-03-04T09:54:47.602Z,7.32
2018-03-04T09:55:47.552Z,7.32
2018-03-04T09:56:47.616Z,6.40
2018-03-04T09:57:47.582Z,4.94
2018-03-04T09:58:47.579Z,5.02
2018-03-04T09:59:47.585Z,5.74
2018-03-04T10:00:47.627Z,5.64
2018-03-04T10:01:47.600Z,4.28
2018-03-04T10:02:47.607Z,4.03
2018-03-04T10:03:47.614Z,4.42
2018-03-04T10:04:47.619Z,4.57
2018-03-04T10:05:47.665Z,4.14
2018-03-04T10:06:47.632Z,3.71
2018-03-04T10:07:47.635Z,3.57
2018-03-04T10:08:47.663Z,3.33
2018-03-04T10:09:47.645Z,3.82
2018-03-04T10:10:47.706Z,3.89
2018-03-04T10:11:47.650Z,4.22
2018-03-04T10:12:47.658Z,4.14
2018-03-04T10:13:47.657Z,4.32
2018-03-04T10:14:47.661Z,3.92
2018-03-04T10:15:47.705Z,3.89
2018-03-04T10:16:47.668Z,4.15
2018-03-04T10:17:47.671Z,5.09
2018-03-04T10:18:47.673Z,6.56
2018-03-04T10:19:47.679Z,7.50
2018-03-04T10:20:47.720Z,7.90
2018-03-04T10:21:47.685Z,6.80
2018-03-04T10:22:47.690Z,6.58
2018-03-04T10:23:47.692Z,5.34
2018-03-04T10:24:47.699Z,4.91
2018-03-04T10:25:47.758Z,5.04
2018-03-04T10:26:47.705Z,5.57
2018-03-04T10:27:47.711Z,6.41
2018-03-04T10:28:47.712Z,7.16
2018-03-04T10:29:47.718Z,7.77
2018-03-04T10:30:47.782Z,7.37
2018-03-04T10:31:47.731Z,7.16
2018-03-04T10:32:47.733Z,7.96
2018-03-04T10:33:47.741Z,7.19
2018-03-04T10:34:47.749Z,6.63
2018-03-04T10:35:47.815Z,5.22
2018-03-04T10:36:47.762Z,5.16
2018-03-04T10:37:47.766Z,4.64
2018-03-04T10:38:47.778Z,4.39
2018-03-04T10:39:47.782Z,4.24
2018-03-04T10:40:47.825Z,4.25
2018-03-04T10:41:47.835Z,4.55
2018-03-04T10:42:47.796Z,4.75
2018-03-04T10:43:47.801Z,4.77
2018-03-04T10:44:47.809Z,4.47
2018-03-04T10:45:47.810Z,4.57
2018-03-04T10:46:47.869Z,5.16
2018-03-04T10:47:47.816Z,5.70
2018-03-04T10:48:47.826Z,5.23
2018-03-04T10:49:47.828Z,5.14
2018-03-04T10:50:47.865Z,5.43
2018-03-04T10:51:47.827Z,5.43
2018-03-04T10:52:47.829Z,5.28
2018-03-04T10:53:47.835Z,5.20
2018-03-04T10:54:47.833Z,5.12
2018-03-04T10:55:47.879Z,4.99
2018-03-04T10:56:47.837Z,5.22
2018-03-04T10:57:47.837Z,5.12
2018-03-04T10:58:47.839Z,5.35
2018-03-04T10:59:47.840Z,4.99
2018-03-04T11:00:47.880Z,4.72
2018-03-04T11:01:47.845Z,4.42
2018-03-04T11:02:47.843Z,4.59
2018-03-04T11:03:47.843Z,5.30
2018-03-04T11:04:47.845Z,5.75
2018-03-04T11:05:47.902Z,6.03
2018-03-04T11:06:48.778Z,5.75
2018-03-04T11:07:47.845Z,5.49
2018-03-04T11:08:47.849Z,5.40
2018-03-04T11:09:47.900Z,5.75
2018-03-04T11:10:47.893Z,6.18
2018-03-04T11:11:47.849Z,6.32
2018-03-04T11:12:47.848Z,6.33
2018-03-04T11:13:47.853Z,5.60
2018-03-04T11:14:47.852Z,5.57
2018-03-04T11:15:48.070Z,6.13
2018-03-04T11:16:47.854Z,6.41
2018-03-04T11:17:47.855Z,6.81
2018-03-04T11:18:47.854Z,6.51
2018-03-04T11:19:47.853Z,6.41
2018-03-04T11:20:48.509Z,6.61
2018-03-04T11:21:47.857Z,6.84
2018-03-04T11:22:47.864Z,7.20
2018-03-04T11:23:47.861Z,7.89
2018-03-04T11:24:47.872Z,8.53
2018-03-04T11:25:47.899Z,8.81
2018-03-04T11:26:47.864Z,9.43
2018-03-04T11:27:47.870Z,9.06
2018-03-04T11:28:47.917Z,9.32
2018-03-04T11:29:47.872Z,8.57
2018-03-04T11:30:47.915Z,8.30
2018-03-04T11:31:47.878Z,7.31
2018-03-04T11:32:47.881Z,7.12
2018-03-04T11:33:47.885Z,7.35
2018-03-04T11:34:47.888Z,6.69
2018-03-04T11:35:47.935Z,6.56
2018-03-04T11:36:47.897Z,6.99
2018-03-04T11:37:47.899Z,6.97
2018-03-04T11:38:47.901Z,6.59
2018-03-04T11:39:47.907Z,6.18
2018-03-04T11:40:47.959Z,6.58
2018-03-04T11:41:47.910Z,6.99
2018-03-04T11:42:47.941Z,7.02
2018-03-04T11:43:47.915Z,7.56
2018-03-04T11:44:47.923Z,7.49
2018-03-04T11:45:47.923Z,7.04
2018-03-04T11:46:47.963Z,6.48
2018-03-04T11:47:47.932Z,6.35
2018-03-04T11:48:47.934Z,6.00
2018-03-04T11:49:47.937Z,6.18
2018-03-04T11:50:47.940Z,6.63
2018-03-04T11:51:47.982Z,6.98
2018-03-04T11:52:47.946Z,7.40
2018-03-04T11:53:48.363Z,7.31
2018-03-04T11:54:47.954Z,6.58
2018-03-04T11:55:47.956Z,6.58
2018-03-04T11:56:47.999Z,6.99
2018-03-04T11:57:47.962Z,7.16
2018-03-04T11:58:47.965Z,7.78
2018-03-04T11:59:47.968Z,8.54
2018-03-04T12:00:47.971Z,8.94
2018-03-04T12:01:48.041Z,8.69
2018-03-04T12:02:47.980Z,8.18
2018-03-04T12:03:47.986Z,8.51
2018-03-04T12:04:47.989Z,8.97
2018-03-04T12:05:47.994Z,9.42
2018-03-04T12:06:48.041Z,9.57
2018-03-04T12:07:48.044Z,9.46
2018-03-04T12:08:48.008Z,9.85
2018-03-04T12:09:48.013Z,10.19
2018-03-04T12:10:48.017Z,10.19
2018-03-04T12:11:48.023Z,10.06
2018-03-04T12:12:48.071Z,9.93
2018-03-04T12:13:48.033Z,9.71
2018-03-04T12:14:48.041Z,9.53
2018-03-04T12:15:48.043Z,9.39
2018-03-04T12:16:48.048Z,8.28
2018-03-04T12:17:48.109Z,7.59
2018-03-04T12:18:48.058Z,7.77
2018-03-04T12:19:48.060Z,7.97
2018-03-04T12:20:48.126Z,8.18
2018-03-04T12:21:48.070Z,8.40
2018-03-04T12:22:48.083Z,8.63
2018-03-04T12:23:48.076Z,9.28
2018-03-04T12:24:48.082Z,9.05
2018-03-04T12:25:48.124Z,8.97
2018-03-04T12:26:48.089Z,8.90
2018-03-04T12:27:48.130Z,8.78
2018-03-04T12:28:48.100Z,9.02
2018-03-04T12:29:48.101Z,8.18
2018-03-04T12:30:48.115Z,8.30
2018-03-04T12:31:48.108Z,9.32
2018-03-04T12:32:48.172Z,10.58
2018-03-04T12:33:48.120Z,11.65
2018-03-04T12:34:48.124Z,11.16
2018-03-04T12:35:48.185Z,11.27
2018-03-04T12:36:48.137Z,9.85
2018-03-04T12:37:48.144Z,9.04
2018-03-04T12:38:48.150Z,9.01
2018-03-04T12:39:48.158Z,8.93
2018-03-04T12:40:48.221Z,9.30
2018-03-04T12:41:48.174Z,10.22
2018-03-04T12:42:48.179Z,10.73
2018-03-04T12:43:48.191Z,10.18
2018-03-04T12:44:48.241Z,10.01
2018-03-04T12:45:48.209Z,9.83
2018-03-04T12:46:48.479Z,10.07
2018-03-04T12:47:48.233Z,10.26
2018-03-04T12:48:48.241Z,11.06
2018-03-04T12:49:48.294Z,12.02
2018-03-04T12:50:48.262Z,12.49
2018-03-04T12:51:48.271Z,13.49
2018-03-04T12:52:48.284Z,13.14
2018-03-04T12:53:48.334Z,10.71
2018-03-04T12:54:48.363Z,9.96
2018-03-04T12:55:48.360Z,10.19
2018-03-04T12:56:48.330Z,10.21
2018-03-04T12:57:48.346Z,9.76
2018-03-04T12:58:48.352Z,9.73
2018-03-04T12:59:48.403Z,9.68
2018-03-04T13:00:48.378Z,9.34
2018-03-04T13:01:48.390Z,9.10
2018-03-04T13:02:48.410Z,9.35